createdAt,value
2018-11-28T00:00:09.266Z,4.90
2018-11-28T00:02:37.989Z,4.90
2018-11-28T00:05:09.941Z,4.90
2018-11-28T00:07:38.740Z,4.90
2018-11-28T00:10:10.390Z,4.90
2018-11-28T00:12:39.325Z,4.90
2018-11-28T00:15:09.551Z,4.90
2018-11-28T00:17:37.900Z,5.00
2018-11-28T00:20:10.435Z,5.00
2018-11-28T00:22:38.809Z,5.00
2018-11-28T00:25:08.185Z,5.00
2018-11-28T00:27:36.545Z,5.00
2018-11-28T00:30:07.755Z,5.00
2018-11-28T00:32:36.121Z,5.00
2018-11-28T00:35:04.819Z,5.00
2018-11-28T00:37:33.212Z,5.00
2018-11-28T00:40:01.584Z,5.00
2018-11-28T00:42:29.948Z,5.10
2018-11-28T00:44:58.845Z,5.10
2018-11-28T00:47:27.210Z,5.00
2018-11-28T00:49:55.608Z,5.00
2018-11-28T00:52:23.983Z,5.00
2018-11-28T00:54:52.310Z,5.00
2018-11-28T00:57:20.644Z,5.00
2018-11-28T00:59:49.020Z,5.00
2018-11-28T01:02:17.398Z,5.00
2018-11-28T01:04:45.753Z,5.00
2018-11-28T01:07:14.448Z,5.00
2018-11-28T01:09:42.804Z,5.00
2018-11-28T01:12:11.154Z,5.00
2018-11-28T01:14:40.460Z,5.10
2018-11-28T01:17:08.823Z,5.00
2018-11-28T01:19:37.175Z,5.10
2018-11-28T01:22:05.879Z,5.00
2018-11-28T01:24:34.234Z,5.10
2018-11-28T01:27:02.601Z,5.00
2018-11-28T01:29:30.974Z,5.10
2018-11-28T01:31:59.341Z,5.10
2018-11-28T01:34:27.685Z,5.10
2018-11-28T01:36:56.046Z,5.10
2018-11-28T01:39:24.402Z,5.10
2018-11-28T01:41:52.783Z,5.10
2018-11-28T01:44:21.150Z,5.10
2018-11-28T01:46:49.557Z,5.10
2018-11-28T01:49:17.904Z,5.10
2018-11-28T01:51:46.234Z,5.10
2018-11-28T01:54:14.589Z,5.10
2018-11-28T01:56:42.926Z,5.20
2018-11-28T01:59:11.285Z,5.10
2018-11-28T02:01:39.618Z,5.10
2018-11-28T02:04:08.375Z,5.10
2018-11-28T02:06:37.347Z,5.20
2018-11-28T02:09:09.060Z,5.20
2018-11-28T02:11:37.410Z,5.20
2018-11-28T02:14:06.134Z,5.20
2018-11-28T02:16:34.498Z,5.20
2018-11-28T02:19:02.874Z,5.20
2018-11-28T02:21:31.556Z,5.20
2018-11-28T02:23:59.912Z,5.20
2018-11-28T02:27:31.801Z,5.20
2018-11-28T02:30:00.126Z,5.20
2018-11-28T02:32:28.511Z,5.30
2018-11-28T02:34:57.076Z,5.30
2018-11-28T02:37:25.694Z,5.30
2018-11-28T02:39:54.284Z,5.30
2018-11-28T02:42:22.626Z,5.30
2018-11-28T02:44:51.005Z,5.30
2018-11-28T02:47:19.472Z,5.30
2018-11-28T02:49:47.853Z,5.30
2018-11-28T02:52:16.212Z,5.30
2018-11-28T02:54:44.561Z,5.30
2018-11-28T02:57:12.938Z,5.30
2018-11-28T02:59:41.325Z,5.30
2018-11-28T03:02:09.694Z,5.30
2018-11-28T03:04:38.069Z,5.30
2018-11-28T03:07:06.509Z,5.30
2018-11-28T03:09:35.238Z,5.30
2018-11-28T03:12:03.654Z,5.30
2018-11-28T03:14:33.031Z,5.40
2018-11-28T03:17:01.397Z,5.30
2018-11-28T03:19:29.769Z,5.30
2018-11-28T03:21:58.522Z,5.30
2018-11-28T03:24:26.879Z,5.40
2018-11-28T03:26:55.258Z,5.30
2018-11-28T03:29:23.616Z,5.40
2018-11-28T03:31:51.989Z,5.40
2018-11-28T03:34:20.368Z,5.40
2018-11-28T03:36:48.694Z,5.40
2018-11-28T03:39:17.030Z,5.40
2018-11-28T03:41:45.752Z,5.40
2018-11-28T03:44:14.098Z,5.40
2018-11-28T03:46:42.443Z,5.40
2018-11-28T03:49:11.062Z,5.40
2018-11-28T03:51:39.426Z,5.40
2018-11-28T03:54:08.132Z,5.40
2018-11-28T03:56:36.476Z,5.40
2018-11-28T03:59:05.742Z,5.40
2018-11-28T04:01:34.086Z,5.40
2018-11-28T04:04:02.485Z,5.40
2018-11-28T04:06:30.838Z,5.40
2018-11-28T04:08:59.200Z,5.40
2018-11-28T04:11:27.644Z,5.40
2018-11-28T04:13:56.009Z,5.40
2018-11-28T04:16:24.365Z,5.40
2018-11-28T04:18:52.784Z,5.40
2018-11-28T04:21:21.105Z,5.40
2018-11-28T04:23:49.463Z,5.50
2018-11-28T04:26:17.873Z,5.40
2018-11-28T04:28:46.211Z,5.40
2018-11-28T04:31:14.591Z,5.50
2018-11-28T04:33:42.988Z,5.50
2018-11-28T04:36:11.315Z,5.50
2018-11-28T04:38:39.708Z,5.50
2018-11-28T04:41:08.125Z,5.50
2018-11-28T04:43:36.486Z,5.50
2018-11-28T04:46:04.911Z,5.50
2018-11-28T04:48:33.299Z,5.50
2018-11-28T04:51:01.746Z,5.50
2018-11-28T04:53:30.094Z,5.50
2018-11-28T04:55:58.446Z,5.50
2018-11-28T04:58:26.789Z,5.60
2018-11-28T05:00:55.159Z,5.60
2018-11-28T05:03:23.539Z,5.60
2018-11-28T05:05:51.884Z,5.60
2018-11-28T05:08:20.263Z,5.60
2018-11-28T05:10:48.626Z,5.60
2018-11-28T05:13:17.023Z,5.60
2018-11-28T05:15:45.493Z,5.60
2018-11-28T05:18:14.126Z,5.60
2018-11-28T05:20:42.468Z,5.60
2018-11-28T05:23:10.872Z,5.60
2018-11-28T05:25:39.264Z,5.70
2018-11-28T05:28:07.954Z,5.70
2018-11-28T05:30:36.301Z,5.70
2018-11-28T05:33:04.705Z,5.70
2018-11-28T05:35:37.355Z,5.70
2018-11-28T05:38:13.071Z,5.70
2018-11-28T05:40:42.601Z,5.70
2018-11-28T05:43:10.972Z,5.70
2018-11-28T05:45:39.319Z,5.70
2018-11-28T05:48:07.732Z,5.70
2018-11-28T05:50:36.162Z,5.70
2018-11-28T05:53:04.781Z,5.70
2018-11-28T05:55:33.153Z,5.70
2018-11-28T05:58:01.526Z,5.70
2018-11-28T06:00:40.426Z,5.70
2018-11-28T06:03:10.649Z,5.80
2018-11-28T06:05:40.059Z,5.80
2018-11-28T06:08:08.523Z,5.80
2018-11-28T06:10:36.961Z,5.80
2018-11-28T06:13:05.402Z,5.80
2018-11-28T06:15:33.812Z,5.70
2018-11-28T06:18:02.184Z,5.80
2018-11-28T06:20:30.544Z,5.80
2018-11-28T06:22:58.882Z,5.80
2018-11-28T06:25:27.229Z,5.80
2018-11-28T06:27:55.588Z,5.80
2018-11-28T06:30:24.668Z,5.80
2018-11-28T06:32:53.056Z,5.80
2018-11-28T06:35:21.449Z,5.80
2018-11-28T06:37:49.818Z,5.80
2018-11-28T06:40:23.584Z,5.80
2018-11-28T06:42:47.939Z,5.80
2018-11-28T06:45:19.362Z,5.80
2018-11-28T06:47:47.806Z,5.80
2018-11-28T06:50:17.188Z,5.80
2018-11-28T06:52:47.104Z,5.80
2018-11-28T06:55:16.634Z,5.80
2018-11-28T06:57:45.407Z,5.80
2018-11-28T07:00:23.063Z,5.90
2018-11-28T07:02:52.976Z,5.90
2018-11-28T07:05:22.493Z,5.80
2018-11-28T07:07:51.596Z,5.90
2018-11-28T07:10:20.760Z,5.90
2018-11-28T07:12:49.186Z,5.90
2018-11-28T07:15:19.193Z,5.90
2018-11-28T07:17:47.570Z,5.90
2018-11-28T07:20:16.477Z,5.90
2018-11-28T07:22:44.880Z,5.90
2018-11-28T07:25:15.230Z,5.90
2018-11-28T07:27:45.305Z,5.90
2018-11-28T07:30:16.082Z,5.90
2018-11-28T07:32:44.633Z,5.90
2018-11-28T07:35:14.116Z,5.90
2018-11-28T07:37:42.922Z,5.90
2018-11-28T07:40:14.829Z,6.00
2018-11-28T07:42:45.145Z,6.00
2018-11-28T07:45:13.897Z,5.90
2018-11-28T07:47:42.304Z,6.00
2018-11-28T07:50:10.868Z,6.00
2018-11-28T07:52:41.100Z,6.00
2018-11-28T07:55:11.138Z,6.00
2018-11-28T07:57:40.434Z,6.00
2018-11-28T08:00:11.640Z,6.00
2018-11-28T08:02:40.178Z,6.10
2018-11-28T08:05:09.610Z,6.10
2018-11-28T08:07:38.114Z,6.10
2018-11-28T08:10:08.948Z,6.10
2018-11-28T08:12:37.406Z,6.10
2018-11-28T08:15:07.170Z,6.10
2018-11-28T08:17:36.404Z,6.10
2018-11-28T08:20:04.701Z,6.20
2018-11-28T08:22:33.048Z,6.20
2018-11-28T08:25:01.433Z,6.20
2018-11-28T08:27:29.827Z,6.20
2018-11-28T08:29:58.201Z,6.20
2018-11-28T08:32:26.650Z,6.30
2018-11-28T08:34:55.048Z,6.30
2018-11-28T08:37:23.411Z,6.30
2018-11-28T08:39:51.834Z,6.30
2018-11-28T08:42:20.198Z,6.30
2018-11-28T08:44:48.851Z,6.30
2018-11-28T08:47:17.263Z,6.30
2018-11-28T08:49:45.707Z,6.30
2018-11-28T08:52:14.445Z,6.30
2018-11-28T08:54:42.839Z,6.30
2018-11-28T08:57:11.210Z,6.30
2018-11-28T08:59:39.655Z,6.30
2018-11-28T09:02:08.030Z,6.30
2018-11-28T09:04:36.804Z,6.30
2018-11-28T09:07:05.371Z,6.40
2018-11-28T09:09:33.734Z,6.40
2018-11-28T09:12:02.477Z,6.40
2018-11-28T09:14:30.892Z,6.40
2018-11-28T09:16:59.285Z,6.40
2018-11-28T09:19:27.699Z,6.40
2018-11-28T09:21:56.085Z,6.50
2018-11-28T09:24:24.458Z,6.40
2018-11-28T09:26:52.821Z,6.50
2018-11-28T09:29:21.220Z,6.50
2018-11-28T09:31:49.562Z,6.50
2018-11-28T09:34:17.912Z,6.50
2018-11-28T09:36:46.268Z,6.50
2018-11-28T09:39:14.619Z,6.50
2018-11-28T09:41:43.010Z,6.60
2018-11-28T09:44:11.393Z,6.60
2018-11-28T09:46:39.769Z,6.60
2018-11-28T09:49:08.148Z,6.60
2018-11-28T09:51:37.107Z,6.60
2018-11-28T09:54:06.300Z,6.70
2018-11-28T09:56:34.652Z,6.70
2018-11-28T09:59:03.035Z,6.70
2018-11-28T10:01:31.434Z,6.70
2018-11-28T10:03:59.814Z,6.80
2018-11-28T10:06:28.194Z,6.80
2018-11-28T10:08:56.558Z,6.80
2018-11-28T10:11:24.924Z,6.90
2018-11-28T10:13:53.319Z,6.80
2018-11-28T10:16:21.683Z,6.80
2018-11-28T10:18:50.032Z,6.80
2018-11-28T10:21:18.392Z,6.80
2018-11-28T10:23:46.784Z,6.80
2018-11-28T10:26:15.161Z,6.80
2018-11-28T10:28:43.521Z,6.80
2018-11-28T10:31:11.899Z,6.90
2018-11-28T10:33:40.284Z,6.90
2018-11-28T10:36:09.008Z,6.90
2018-11-28T10:38:37.414Z,6.90
2018-11-28T10:41:06.842Z,7.00
2018-11-28T10:43:35.290Z,7.00
2018-11-28T10:46:03.680Z,7.10
2018-11-28T10:48:33.090Z,7.10
2018-11-28T10:51:01.462Z,7.20
2018-11-28T10:53:29.902Z,7.20
2018-11-28T10:55:58.253Z,7.30
2018-11-28T10:58:27.228Z,7.30
2018-11-28T11:01:00.518Z,7.40
2018-11-28T11:03:35.018Z,7.30
2018-11-28T11:06:08.969Z,7.40
2018-11-28T11:08:42.657Z,7.50
2018-11-28T11:11:16.247Z,7.50
2018-11-28T11:13:50.059Z,7.50
2018-11-28T11:16:33.969Z,7.50
2018-11-28T11:19:02.367Z,7.50
2018-11-28T11:21:30.800Z,7.60
2018-11-28T11:23:59.179Z,7.70
2018-11-28T11:26:27.563Z,7.70
2018-11-28T11:28:55.929Z,7.80
2018-11-28T11:31:24.286Z,7.80
2018-11-28T11:33:52.682Z,7.80
2018-11-28T11:36:21.036Z,7.80
2018-11-28T11:38:49.399Z,7.80
2018-11-28T11:41:17.818Z,7.80
2018-11-28T11:45:15.696Z,7.80
2018-11-28T11:47:44.405Z,7.80
2018-11-28T11:50:17.143Z,7.90
2018-11-28T11:52:46.844Z,7.80
2018-11-28T11:55:19.406Z,7.90
2018-11-28T11:57:48.432Z,7.80
2018-11-28T12:00:19.871Z,7.80
2018-11-28T12:02:58.666Z,7.80
2018-11-28T12:05:27.153Z,7.70
2018-11-28T12:07:55.557Z,7.70
2018-11-28T12:10:24.261Z,7.70
2018-11-28T12:12:54.309Z,7.70
2018-11-28T12:15:22.905Z,7.70
2018-11-28T12:17:51.630Z,7.70
2018-11-28T12:20:37.625Z,7.70
2018-11-28T12:23:06.126Z,7.60
2018-11-28T12:25:34.608Z,7.60
2018-11-28T12:28:03.326Z,7.60
2018-11-28T12:30:31.809Z,7.60
2018-11-28T12:33:00.175Z,7.60
2018-11-28T12:35:28.924Z,7.60
2018-11-28T12:38:00.414Z,7.50
2018-11-28T12:40:30.732Z,7.50
2018-11-28T12:42:59.815Z,7.50
2018-11-28T12:45:28.327Z,7.50
2018-11-28T12:47:56.768Z,7.50
2018-11-28T12:50:27.824Z,7.60
2018-11-28T12:52:57.315Z,7.60
2018-11-28T12:55:26.083Z,7.60
2018-11-28T12:57:55.646Z,7.60
2018-11-28T13:00:25.279Z,7.60
2018-11-28T13:02:54.003Z,7.60
2018-11-28T13:05:23.668Z,7.60
2018-11-28T13:07:52.129Z,7.60
2018-11-28T13:10:25.678Z,7.60
2018-11-28T13:12:54.606Z,7.60
2018-11-28T13:15:23.831Z,7.60
2018-11-28T13:17:52.230Z,7.60
2018-11-28T13:20:21.269Z,7.60
2018-11-28T13:22:51.140Z,7.60
2018-11-28T13:25:24.042Z,7.60
2018-11-28T13:27:52.813Z,7.60
2018-11-28T13:30:22.519Z,7.60
2018-11-28T13:32:51.839Z,7.60
2018-11-28T13:35:27.558Z,7.60
2018-11-28T13:38:04.091Z,7.60
2018-11-28T13:40:32.501Z,7.60
2018-11-28T13:43:00.894Z,7.60
2018-11-28T13:45:31.486Z,7.60
2018-11-28T13:47:59.997Z,7.60
2018-11-28T13:50:28.745Z,7.60
2018-11-28T13:52:58.294Z,7.70
2018-11-28T13:55:41.841Z,7.70
2018-11-28T13:58:00.935Z,7.70
2018-11-28T14:00:29.385Z,7.70
2018-11-28T14:02:57.753Z,7.70
2018-11-28T14:05:26.145Z,7.70
2018-11-28T14:07:54.625Z,7.70
2018-11-28T14:10:23.005Z,7.70
2018-11-28T14:12:51.874Z,7.70
2018-11-28T14:15:21.598Z,7.70
2018-11-28T14:17:57.618Z,7.70
2018-11-28T14:20:25.969Z,7.80
2018-11-28T14:22:54.374Z,7.80
2018-11-28T14:25:23.748Z,7.80
2018-11-28T14:27:51.876Z,7.80
2018-11-28T14:30:21.975Z,7.80
2018-11-28T14:32:51.087Z,7.80
2018-11-28T14:35:19.858Z,7.80
2018-11-28T14:38:51.943Z,7.80
2018-11-28T14:41:20.294Z,7.90
2018-11-28T14:43:48.672Z,7.80
2018-11-28T14:46:17.064Z,7.90
2018-11-28T14:48:45.421Z,7.90
2018-11-28T14:51:13.797Z,7.90
2018-11-28T14:53:42.226Z,7.90
2018-11-28T14:56:10.651Z,7.90
2018-11-28T14:58:39.026Z,7.90
2018-11-28T15:01:07.445Z,7.90
2018-11-28T15:03:35.851Z,7.90
2018-11-28T15:06:10.799Z,7.90
2018-11-28T15:08:40.021Z,8.00
2018-11-28T15:11:10.226Z,8.00
2018-11-28T15:13:39.398Z,8.00
2018-11-28T15:16:07.942Z,8.00
2018-11-28T15:18:36.382Z,8.00
2018-11-28T15:21:05.164Z,8.00
2018-11-28T15:23:33.577Z,8.00
2018-11-28T15:26:02.125Z,8.00
2018-11-28T15:28:30.488Z,8.00
2018-11-28T15:30:58.851Z,8.10
2018-11-28T15:33:27.223Z,8.10
2018-11-28T15:35:55.601Z,8.10
2018-11-28T15:38:23.992Z,8.10
2018-11-28T15:40:53.129Z,8.10
2018-11-28T15:43:21.514Z,8.10
2018-11-28T15:45:49.958Z,8.10
2018-11-28T15:48:18.436Z,8.10
2018-11-28T15:50:46.877Z,8.10
2018-11-28T15:53:15.274Z,8.10
2018-11-28T15:55:43.696Z,8.10
2018-11-28T15:58:12.118Z,8.20
2018-11-28T16:00:40.585Z,8.10
2018-11-28T16:03:09.046Z,8.20
2018-11-28T16:05:37.436Z,8.20
2018-11-28T16:08:05.875Z,8.20
2018-11-28T16:10:42.134Z,8.20
2018-11-28T16:13:10.829Z,8.20
2018-11-28T16:15:56.511Z,8.30
2018-11-28T16:18:24.915Z,8.30
2018-11-28T16:20:53.640Z,8.30
2018-11-28T16:23:22.021Z,8.30
2018-11-28T16:25:50.531Z,8.30
2018-11-28T16:28:18.887Z,8.30
2018-11-28T16:30:47.260Z,8.30
2018-11-28T16:33:15.651Z,8.40
2018-11-28T16:35:44.258Z,8.40
2018-11-28T16:38:12.699Z,8.40
2018-11-28T16:40:41.113Z,8.40
2018-11-28T16:43:09.552Z,8.40
2018-11-28T16:45:37.960Z,8.40
2018-11-28T16:48:06.370Z,8.40
2018-11-28T16:50:34.815Z,8.50
2018-11-28T16:53:03.182Z,8.50
2018-11-28T16:55:31.968Z,8.50
2018-11-28T16:58:00.371Z,8.50
2018-11-28T17:00:30.164Z,8.60
2018-11-28T17:02:58.595Z,8.60
2018-11-28T17:05:27.329Z,8.60
2018-11-28T17:07:55.733Z,8.60
2018-11-28T17:10:25.715Z,8.60
2018-11-28T17:12:54.932Z,8.70
2018-11-28T17:15:23.683Z,8.70
2018-11-28T17:17:52.407Z,8.70
2018-11-28T17:20:23.002Z,8.70
2018-11-28T17:22:52.735Z,8.70
2018-11-28T17:25:26.476Z,8.70
2018-11-28T17:27:54.868Z,8.70
2018-11-28T17:30:27.451Z,8.70
2018-11-28T17:32:56.515Z,8.70
2018-11-28T17:36:54.337Z,8.70
2018-11-28T17:39:22.722Z,8.70
2018-11-28T17:41:51.132Z,8.70
2018-11-28T17:44:19.564Z,8.70
2018-11-28T17:46:47.930Z,8.70
2018-11-28T17:49:16.567Z,8.80
2018-11-28T17:51:44.945Z,8.80
2018-11-28T17:54:13.798Z,8.80
2018-11-28T17:56:42.171Z,8.80
2018-11-28T17:59:10.562Z,8.80
2018-11-28T18:01:38.993Z,8.80
2018-11-28T18:04:07.401Z,8.80
2018-11-28T18:06:35.791Z,8.80
2018-11-28T18:09:06.887Z,8.90
2018-11-28T18:11:35.267Z,8.90
2018-11-28T18:14:03.739Z,8.90
2018-11-28T18:16:32.102Z,8.90
2018-11-28T18:19:00.436Z,8.90
2018-11-28T18:21:28.793Z,8.90
2018-11-28T18:23:57.177Z,8.90
2018-11-28T18:26:26.653Z,9.00
2018-11-28T18:28:55.004Z,9.00
2018-11-28T18:31:23.384Z,9.00
2018-11-28T18:33:52.179Z,9.00
2018-11-28T18:36:20.537Z,9.00
2018-11-28T18:38:48.907Z,9.00
2018-11-28T18:41:17.637Z,9.00
2018-11-28T18:43:46.154Z,9.00
2018-11-28T18:46:14.878Z,9.00
2018-11-28T18:48:43.250Z,9.10
2018-11-28T18:51:11.626Z,9.10
2018-11-28T18:53:40.042Z,9.10
2018-11-28T18:56:08.434Z,9.10
2018-11-28T18:58:36.826Z,9.10
2018-11-28T19:01:05.665Z,9.10
2018-11-28T19:03:34.040Z,9.10
2018-11-28T19:06:02.451Z,9.10
2018-11-28T19:08:30.815Z,9.10
2018-11-28T19:10:59.718Z,9.10
2018-11-28T19:13:28.034Z,9.10
2018-11-28T19:15:56.550Z,9.10
2018-11-28T19:18:24.965Z,9.10
2018-11-28T19:20:53.313Z,9.20
2018-11-28T19:23:21.687Z,9.10
2018-11-28T19:25:50.376Z,9.20
2018-11-28T19:28:18.556Z,9.30
2018-11-28T19:30:46.966Z,9.30
2018-11-28T19:33:17.227Z,9.50
2018-11-28T19:35:45.995Z,9.50
2018-11-28T19:38:15.317Z,9.50
2018-11-28T19:40:46.742Z,9.50
2018-11-28T19:43:15.145Z,9.60
2018-11-28T19:45:43.515Z,9.60
2018-11-28T19:48:11.980Z,9.60
2018-11-28T19:50:40.393Z,9.60
2018-11-28T19:53:09.635Z,9.60
2018-11-28T19:55:38.189Z,9.60
2018-11-28T19:58:07.519Z,9.60
2018-11-28T20:00:36.594Z,9.60
2018-11-28T20:03:04.984Z,9.60
2018-11-28T20:05:33.386Z,9.70
2018-11-28T20:08:01.750Z,9.70
2018-11-28T20:10:30.144Z,9.70
2018-11-28T20:12:58.583Z,9.70
2018-11-28T20:15:28.355Z,9.70
2018-11-28T20:17:57.554Z,9.70
2018-11-28T20:20:26.305Z,9.70
2018-11-28T20:22:54.713Z,9.80
2018-11-28T20:25:24.449Z,9.70
2018-11-28T20:27:58.205Z,9.80
2018-11-28T20:30:32.833Z,9.80
2018-11-28T20:33:01.217Z,9.80
2018-11-28T20:35:29.609Z,9.80
2018-11-28T20:37:57.986Z,9.80
2018-11-28T20:40:26.711Z,9.80
2018-11-28T20:42:55.829Z,9.80
2018-11-28T20:45:24.399Z,9.80
2018-11-28T20:47:52.751Z,9.80
2018-11-28T20:50:24.013Z,9.80
2018-11-28T20:52:55.067Z,9.80
2018-11-28T20:55:22.885Z,9.80
2018-11-28T20:57:51.268Z,9.80
2018-11-28T21:00:21.870Z,9.80
2018-11-28T21:02:50.597Z,9.80
2018-11-28T21:05:19.337Z,9.80
2018-11-28T21:07:47.832Z,9.80
2018-11-28T21:10:22.208Z,9.80
2018-11-28T21:12:50.842Z,9.80
2018-11-28T21:15:19.232Z,9.80
2018-11-28T21:17:48.240Z,9.80
2018-11-28T21:20:23.092Z,9.80
2018-11-28T21:22:56.772Z,9.80
2018-11-28T21:25:25.214Z,9.80
2018-11-28T21:27:53.582Z,9.80
2018-11-28T21:30:23.161Z,9.80
2018-11-28T21:32:53.650Z,9.80
2018-11-28T21:35:29.073Z,9.80
2018-11-28T21:37:57.428Z,9.80
2018-11-28T21:40:25.956Z,9.80
2018-11-28T21:42:54.433Z,9.80
2018-11-28T21:45:24.239Z,9.90
2018-11-28T21:51:24.927Z,9.90
2018-11-28T21:53:53.360Z,9.90
2018-11-28T21:56:21.851Z,9.80
2018-11-28T21:58:50.695Z,9.90
2018-11-28T22:01:19.432Z,9.90
2018-11-28T22:03:47.807Z,9.90
2018-11-28T22:06:16.167Z,9.90
2018-11-28T22:08:44.599Z,9.90
2018-11-28T22:11:12.999Z,9.80
2018-11-28T22:13:41.353Z,9.90
2018-11-28T22:16:09.765Z,9.90
2018-11-28T22:18:38.121Z,9.90
2018-11-28T22:21:06.999Z,9.90
2018-11-28T22:23:35.569Z,9.90
2018-11-28T22:26:03.915Z,9.90
2018-11-28T22:28:32.787Z,9.90
2018-11-28T22:31:01.142Z,9.90
2018-11-28T22:33:29.493Z,9.90
2018-11-28T22:35:57.876Z,9.90
2018-11-28T22:38:26.235Z,9.90
2018-11-28T22:40:54.606Z,9.90
2018-11-28T22:43:22.974Z,9.90
2018-11-28T22:45:51.334Z,9.90
2018-11-28T22:48:19.708Z,9.90
2018-11-28T22:50:48.058Z,9.90
2018-11-28T22:53:16.420Z,9.90
2018-11-28T22:55:44.784Z,9.90
2018-11-28T22:58:13.178Z,9.90
2018-11-28T23:00:46.831Z,9.90
2018-11-28T23:03:15.732Z,9.80
2018-11-28T23:05:46.267Z,9.80
2018-11-28T23:08:15.683Z,9.80
2018-11-28T23:10:44.078Z,9.80
2018-11-28T23:13:14.571Z,9.80
2018-11-28T23:15:43.670Z,9.80
2018-11-28T23:18:12.260Z,9.80
2018-11-28T23:20:41.221Z,9.80
2018-11-28T23:23:10.803Z,9.80
2018-11-28T23:25:39.690Z,9.80
2018-11-28T23:28:08.367Z,9.80
2018-11-28T23:30:38.275Z,9.80
2018-11-28T23:33:08.689Z,9.80
2018-11-28T23:35:37.111Z,9.80
2018-11-28T23:38:06.195Z,9.80
2018-11-28T23:40:34.559Z,9.90
2018-11-28T23:43:03.568Z,9.80
2018-11-28T23:45:32.429Z,9.80
2018-11-28T23:48:01.153Z,9.80
2018-11-28T23:50:29.532Z,9.90
2018-11-28T23:52:57.912Z,9.90
2018-11-28T23:55:27.473Z,9.90
2018-11-28T23:57:56.003Z,9.90
